Time;durP1;ratioP1;P1;durP2;ratioP2;P2;SDS_P1;SDS_P2;PMS_P1;PMS_P2;Temp;Humidity;BMP_temperature;BMP_pressure;BME280_temperature;BME280_humidity;BME280_pressure;Samples;Min_cycle;Max_cycle;Signal;HPM_P1;HPM_P2
2022/08/24 02:03:59;;;;;;;30.17;21.47;;;;;;;-145.18;100.00;46656.50;5002440;23;20265;-76
2022/08/24 02:06:25;;;;;;;28.30;22.00;;;;;;;-145.18;100.00;46652.59;5014067;28;20037;-75
2022/08/24 02:08:51;;;;;;;30.23;18.33;;;;;;;-145.18;100.00;46642.81;5006356;28;20125;-75
2022/08/24 02:11:17;;;;;;;29.77;19.97;;;;;;;-145.18;100.00;46650.63;5006095;28;20133;-75
2022/08/24 02:13:42;;;;;;;31.03;23.53;;;;;;;-145.18;100.00;46642.81;5011463;28;20033;-75
2022/08/24 02:16:08;;;;;;;31.87;25.47;;;;;;;-145.18;100.00;46638.91;5029873;28;20067;-76
2022/08/24 02:18:34;;;;;;;32.90;25.33;;;;;;;-145.18;100.00;46638.91;5030098;28;20021;-75
2022/08/24 02:21:00;;;;;;;52.47;22.37;;;;;;;-145.18;100.00;46638.91;5012520;28;20033;-75
2022/08/24 02:23:27;;;;;;;24.00;18.50;;;;;;;-145.18;100.00;46635.00;5029927;28;20068;-75
2022/08/24 02:25:53;;;;;;;45.27;19.53;;;;;;;-145.18;100.00;46636.94;5030318;28;20026;-75
2022/08/24 02:28:19;;;;;;;37.10;26.40;;;;;;;-145.18;100.00;46636.94;5030348;28;20492;-75
2022/08/24 02:30:44;;;;;;;33.00;25.53;;;;;;;-145.18;100.00;46635.00;5030443;28;20036;-75
2022/08/24 02:33:09;;;;;;;28.50;20.93;;;;;;;-145.18;100.00;46635.00;5029791;28;20041;-76
2022/08/24 02:35:35;;;;;;;23.67;17.83;;;;;;;-145.18;100.00;46636.94;5030236;28;20474;-75
2022/08/24 02:38:01;;;;;;;28.33;20.13;;;;;;;-145.18;100.00;46640.88;5029933;28;20033;-76
2022/08/24 02:40:26;;;;;;;25.77;19.80;;;;;;;-145.18;100.00;46635.00;5030252;28;20628;-75
2022/08/24 02:42:52;;;;;;;17.77;15.03;;;;;;;-145.18;100.00;46633.06;5029148;28;20088;-75
2022/08/24 02:45:18;;;;;;;14.30;11.57;;;;;;;-145.18;100.00;46635.00;5030167;28;20109;-75
2022/08/24 02:47:44;;;;;;;17.03;12.70;;;;;;;-145.18;100.00;46635.00;5029889;28;20035;-76
2022/08/24 02:50:13;;;;;;;18.33;14.50;;;;;;;-145.18;100.00;46636.94;5029832;28;20025;-76
2022/08/24 02:52:39;;;;;;;11.63;9.83;;;;;;;-145.18;100.00;46636.94;5029922;28;20026;-75
2022/08/24 02:55:08;;;;;;;11.13;10.03;;;;;;;-145.18;100.00;46636.94;5029877;28;20064;-76
2022/08/24 02:57:33;;;;;;;9.10;8.20;;;;;;;-145.18;100.00;46640.88;5029302;28;20076;-76
2022/08/24 02:59:58;;;;;;;7.03;6.33;;;;;;;-145.18;100.00;46640.88;5018226;28;20042;-76
2022/08/24 03:02:24;;;;;;;10.43;7.80;;;;;;;-145.18;100.00;46638.91;5022050;28;20088;-76
2022/08/24 03:04:49;;;;;;;12.53;9.70;;;;;;;-145.18;100.00;46640.88;5030010;28;20083;-75
2022/08/24 03:07:15;;;;;;;10.67;9.33;;;;;;;-145.18;100.00;46642.81;5011787;28;20179;-75
2022/08/24 03:09:40;;;;;;;12.10;9.37;;;;;;;-145.18;100.00;46638.91;5028984;28;20029;-76
2022/08/24 03:12:05;;;;;;;9.53;8.47;;;;;;;-145.18;100.00;46650.63;5029299;28;20029;-75
2022/08/24 03:14:31;;;;;;;10.17;9.07;;;;;;;-145.18;100.00;46642.81;5029821;28;20433;-75
2022/08/24 03:16:56;;;;;;;10.40;9.30;;;;;;;-145.18;100.00;46650.63;5029525;28;20030;-76
2022/08/24 03:19:22;;;;;;;9.83;8.87;;;;;;;-145.18;100.00;46654.53;5029556;28;20132;-75
2022/08/24 03:21:48;;;;;;;11.80;9.90;;;;;;;-145.18;100.00;46658.44;5029987;28;20125;-75
2022/08/24 03:24:13;;;;;;;14.83;11.93;;;;;;;-145.18;100.00;46658.44;5029117;28;20450;-75
2022/08/24 03:26:39;;;;;;;14.43;12.03;;;;;;;-145.18;100.00;46660.41;5029904;28;20030;-75
2022/08/24 03:29:05;;;;;;;16.27;10.97;;;;;;;-145.18;100.00;46658.44;5031509;28;20029;-75
2022/08/24 03:31:30;;;;;;;11.37;9.57;;;;;;;-145.18;100.00;46660.41;5033598;28;20496;-75
2022/08/24 03:33:56;;;;;;;15.47;12.03;;;;;;;-145.18;100.00;46656.50;5033188;28;20083;-75
2022/08/24 03:36:21;;;;;;;21.90;17.57;;;;;;;-145.18;100.00;46658.44;5033138;28;20252;-75
2022/08/24 03:38:46;;;;;;;26.40;21.77;;;;;;;-145.18;100.00;46652.59;5032825;28;20052;-75
2022/08/24 03:41:12;;;;;;;20.93;16.17;;;;;;;-145.18;100.00;46654.53;5032942;28;20075;-75
2022/08/24 03:43:45;;;;;;;19.30;14.97;;;;;;;-145.18;100.00;46652.59;5032772;28;20104;-75
2022/08/24 03:46:12;;;;;;;16.27;13.87;;;;;;;-145.18;100.00;46654.53;5033057;28;20482;-75
2022/08/24 03:48:39;;;;;;;20.17;16.03;;;;;;;-145.18;100.00;46656.50;5032954;28;20025;-75
2022/08/24 03:51:05;;;;;;;19.80;16.17;;;;;;;-145.18;100.00;46660.41;5032921;28;20037;-75
2022/08/24 03:53:31;;;;;;;21.50;15.80;;;;;;;-145.18;100.00;46656.50;5032768;28;20399;-74
2022/08/24 03:55:57;;;;;;;19.70;16.07;;;;;;;-145.18;100.00;46654.53;5032796;28;20047;-75
2022/08/24 03:58:22;;;;;;;20.00;16.90;;;;;;;-145.18;100.00;46642.81;5032545;28;20140;-75
2022/08/24 04:00:48;;;;;;;19.67;15.47;;;;;;;-145.18;100.00;46654.53;5032874;28;20029;-74
2022/08/24 04:03:14;;;;;;;15.00;10.90;;;;;;;-145.18;100.00;46652.59;5044426;28;20061;-74
2022/08/24 04:05:41;;;;;;;21.77;10.87;;;;;;;-145.18;100.00;46656.50;5029534;28;20465;-74
2022/08/24 04:08:07;;;;;;;26.13;18.40;;;;;;;-145.18;100.00;46652.59;5023306;28;20385;-74
2022/08/24 04:10:33;;;;;;;79.37;16.80;;;;;;;-145.18;100.00;46652.59;5027110;28;20041;-74
2022/08/24 04:13:02;;;;;;;12.23;9.33;;;;;;;-145.18;100.00;46658.44;5032040;28;20244;-75
2022/08/24 04:15:30;;;;;;;13.53;11.67;;;;;;;-145.18;100.00;46656.50;5032571;28;20026;-74
2022/08/24 04:17:55;;;;;;;18.73;15.80;;;;;;;-145.18;100.00;46656.50;5032171;28;20025;-74
2022/08/24 04:20:22;;;;;;;16.23;13.63;;;;;;;-145.18;100.00;46652.59;5032223;28;20068;-74
2022/08/24 04:22:48;;;;;;;8.87;7.90;;;;;;;-145.18;100.00;46652.59;5031876;28;20490;-73
2022/08/24 04:25:13;;;;;;;9.73;8.63;;;;;;;-145.18;100.00;46660.41;5031827;28;20033;-73
2022/08/24 04:27:40;;;;;;;11.60;9.70;;;;;;;-145.18;100.00;46656.50;5031865;28;20496;-73
2022/08/24 04:30:06;;;;;;;14.27;11.70;;;;;;;-145.18;100.00;46656.50;5031729;28;20396;-73
2022/08/24 04:32:31;;;;;;;15.67;12.93;;;;;;;-145.18;100.00;46660.41;5031818;28;20034;-73
2022/08/24 04:34:58;;;;;;;14.77;12.80;;;;;;;-145.18;100.00;46660.41;5031623;28;20540;-73
2022/08/24 04:37:23;;;;;;;9.43;7.83;;;;;;;-145.18;100.00;46656.50;5031544;28;20037;-74
2022/08/24 04:39:49;;;;;;;12.10;9.37;;;;;;;-145.18;100.00;46660.41;5031527;28;20071;-73
2022/08/24 04:42:14;;;;;;;12.57;9.00;;;;;;;-145.18;100.00;46658.44;5031581;28;20117;-73
2022/08/24 04:44:39;;;;;;;11.73;10.10;;;;;;;-145.18;100.00;46656.50;5031928;28;20068;-73
2022/08/24 04:47:06;;;;;;;22.70;17.57;;;;;;;-145.18;100.00;46654.53;5031252;28;20030;-73
2022/08/24 04:49:32;;;;;;;21.33;15.60;;;;;;;-145.18;100.00;46654.53;5033340;28;20052;-73
2022/08/24 04:51:57;;;;;;;17.30;14.03;;;;;;;-145.18;100.00;46658.44;5030367;28;20095;-73
2022/08/24 04:54:23;;;;;;;14.97;10.93;;;;;;;-145.18;100.00;46656.50;5031142;28;20037;-73
2022/08/24 04:56:48;;;;;;;18.47;12.27;;;;;;;-145.18;100.00;46656.50;5031074;28;20037;-72
2022/08/24 04:59:14;;;;;;;24.70;17.83;;;;;;;-145.18;100.00;46650.63;5030344;28;20375;-72
2022/08/24 05:01:41;;;;;;;24.77;18.33;;;;;;;-145.18;100.00;46654.53;5031773;28;20029;-72
2022/08/24 05:04:06;;;;;;;21.93;17.47;;;;;;;-145.18;100.00;46654.53;5016195;28;20064;-72
2022/08/24 05:06:32;;;;;;;14.90;13.10;;;;;;;-145.18;100.00;46654.53;5025991;28;20034;-72
2022/08/24 05:08:59;;;;;;;17.20;13.33;;;;;;;-145.18;100.00;46652.59;5020985;28;20037;-72
2022/08/24 05:11:25;;;;;;;17.53;15.07;;;;;;;-145.18;100.00;46654.53;5024469;28;20034;-72
2022/08/24 05:13:53;;;;;;;19.63;15.30;;;;;;;-145.18;100.00;46650.63;5023112;28;20483;-72
2022/08/24 05:16:19;;;;;;;22.23;16.83;;;;;;;-145.18;100.00;46652.59;5030368;28;20111;-72
2022/08/24 05:18:45;;;;;;;19.03;15.60;;;;;;;-145.18;100.00;46656.50;5021765;28;20038;-72
2022/08/24 05:21:13;;;;;;;16.50;14.10;;;;;;;-145.18;100.00;46652.59;5014497;28;20036;-72
2022/08/24 05:23:39;;;;;;;15.67;13.23;;;;;;;-145.18;100.00;46654.53;5011583;28;20030;-72
2022/08/24 05:26:05;;;;;;;15.17;12.43;;;;;;;-145.18;100.00;46656.50;5030848;28;20107;-72
2022/08/24 05:28:30;;;;;;;15.63;12.73;;;;;;;-145.18;100.00;46654.53;5030336;28;20037;-71
2022/08/24 05:30:56;;;;;;;17.20;12.40;;;;;;;-145.18;100.00;46658.44;5030678;28;20037;-71
2022/08/24 05:33:21;;;;;;;19.50;14.13;;;;;;;-145.18;100.00;46650.63;5030581;28;20493;-71
2022/08/24 05:35:46;;;;;;;24.37;17.93;;;;;;;-145.18;100.00;46656.50;5030923;28;20095;-72
2022/08/24 05:38:12;;;;;;;23.77;18.57;;;;;;;-145.18;100.00;46654.53;5030178;28;20033;-71
2022/08/24 05:40:37;;;;;;;28.07;20.50;;;;;;;-145.18;100.00;46650.63;5030829;28;20398;-72
2022/08/24 05:43:03;;;;;;;25.37;19.30;;;;;;;-145.18;100.00;46652.59;5030149;28;20136;-72
2022/08/24 05:45:28;;;;;;;27.63;21.23;;;;;;;-145.18;100.00;46654.53;5013028;28;20033;-72
2022/08/24 05:47:53;;;;;;;28.83;21.67;;;;;;;-145.18;100.00;46650.63;5030574;28;20408;-72
2022/08/24 05:50:19;;;;;;;25.50;21.07;;;;;;;-145.18;100.00;46650.63;5030077;28;20116;-72
2022/08/24 05:52:44;;;;;;;27.00;21.57;;;;;;;-145.18;100.00;46652.59;5029351;28;20497;-72
2022/08/24 05:55:10;;;;;;;29.63;22.50;;;;;;;-145.18;100.00;46656.50;5030088;28;20537;-72
2022/08/24 05:57:36;;;;;;;27.07;22.83;;;;;;;-145.18;100.00;46656.50;5030413;28;20041;-72
2022/08/24 06:00:06;;;;;;;31.57;23.80;;;;;;;-145.18;100.00;46658.44;5030051;28;20048;-72
2022/08/24 06:02:31;;;;;;;32.70;24.00;;;;;;;-145.18;100.00;46654.53;5036146;28;20417;-72
2022/08/24 06:04:56;;;;;;;34.17;28.07;;;;;;;-145.18;100.00;46654.53;5047952;28;20033;-72
2022/08/24 06:07:22;;;;;;;39.27;30.10;;;;;;;-145.18;100.00;46654.53;5034612;28;20037;-72
2022/08/24 06:09:47;;;;;;;44.90;33.57;;;;;;;-145.18;100.00;46654.53;5029548;28;20033;-72
2022/08/24 06:12:13;;;;;;;45.97;33.03;;;;;;;-145.18;100.00;46652.59;5029999;28;20493;-72
2022/08/24 06:14:38;;;;;;;39.13;31.67;;;;;;;-145.18;100.00;46650.63;5024162;28;20034;-72
2022/08/24 06:17:07;;;;;;;37.97;31.33;;;;;;;-145.18;100.00;46654.53;4992820;28;20414;-72
2022/08/24 06:19:33;;;;;;;44.50;34.27;;;;;;;-145.18;100.00;46652.59;5009371;28;20034;-72
2022/08/24 06:22:00;;;;;;;43.30;32.23;;;;;;;-145.18;100.00;46654.53;5009352;28;20022;-72
2022/08/24 06:27:21;;;;;;;48.10;32.67;;;;;;;-145.18;100.00;46656.50;5010935;28;20105;-71
2022/08/24 06:29:48;;;;;;;52.97;25.87;;;;;;;-145.18;100.00;46654.53;5010144;28;20033;-72
2022/08/24 06:32:13;;;;;;;44.03;27.90;;;;;;;-145.18;100.00;46640.88;5010095;28;20116;-73
2022/08/24 06:34:39;;;;;;;40.03;27.53;;;;;;;-145.18;100.00;46652.59;5009751;28;20493;-73
2022/08/24 06:37:04;;;;;;;33.63;26.87;;;;;;;-145.18;100.00;46656.50;5010056;28;20050;-73
2022/08/24 06:39:30;;;;;;;37.77;28.97;;;;;;;-145.18;100.00;46656.50;4992243;28;20041;-74
2022/08/24 06:41:56;;;;;;;34.47;27.33;;;;;;;-145.18;100.00;46660.41;5010111;28;20158;-73
2022/08/24 06:44:21;;;;;;;121.20;30.03;;;;;;;-145.18;100.00;46660.41;5009733;28;20105;-74
2022/08/24 06:46:46;;;;;;;32.67;24.87;;;;;;;-145.18;100.00;46660.41;5010146;28;20410;-73
2022/08/24 06:49:12;;;;;;;31.07;24.00;;;;;;;-145.18;100.00;46660.41;5009081;28;20108;-74
2022/08/24 06:51:37;;;;;;;34.20;24.37;;;;;;;-145.18;100.00;46660.41;5010197;28;20026;-73
2022/08/24 06:54:03;;;;;;;28.80;23.47;;;;;;;-145.18;100.00;46660.41;5009541;28;20084;-74
2022/08/24 06:56:28;;;;;;;31.00;22.70;;;;;;;-145.18;100.00;46627.19;4992626;28;20054;-74
2022/08/24 06:58:54;;;;;;;28.97;22.03;;;;;;;-145.18;100.00;46635.00;5009148;28;20558;-71
2022/08/24 07:01:23;;;;;;;33.70;25.00;;;;;;;-145.18;100.00;46629.13;5010514;28;20034;-72
2022/08/24 07:03:48;;;;;;;32.80;24.17;;;;;;;-145.18;100.00;46635.00;5011900;28;20203;-73
2022/08/24 07:06:14;;;;;;;34.07;24.37;;;;;;;-145.18;100.00;46631.09;5017908;28;20033;-74
2022/08/24 07:08:41;;;;;;;27.73;22.80;;;;;;;-145.18;100.00;46631.09;5032269;28;20032;-74
2022/08/24 07:11:07;;;;;;;30.20;22.97;;;;;;;-145.18;100.00;46633.06;5033341;28;20035;-74
2022/08/24 07:13:33;;;;;;;31.23;22.27;;;;;;;-145.18;100.00;46636.94;5033519;28;20029;-67
2022/08/24 07:15:59;;;;;;;31.13;23.07;;;;;;;-145.18;100.00;46636.94;5033506;28;20386;-67
2022/08/24 07:18:25;;;;;;;26.07;21.07;;;;;;;-145.18;100.00;46636.94;5033019;28;20036;-68
2022/08/24 07:20:50;;;;;;;28.17;21.37;;;;;;;-145.18;100.00;46642.81;5033146;28;20429;-68
2022/08/24 07:23:17;;;;;;;29.57;23.67;;;;;;;-145.18;100.00;46640.88;5015650;28;20053;-68
2022/08/24 07:25:45;;;;;;;33.20;23.90;;;;;;;-145.18;100.00;46640.88;5032867;28;20489;-68
2022/08/24 07:28:10;;;;;;;27.55;19.83;;;;;;;-145.18;100.00;46640.88;5033002;28;20034;-67
2022/08/24 07:30:37;;;;;;;31.50;23.10;;;;;;;-145.18;100.00;46640.88;5033016;28;20080;-68
2022/08/24 07:33:03;;;;;;;32.70;22.17;;;;;;;-145.18;100.00;46646.72;5033197;28;20116;-70
2022/08/24 07:35:31;;;;;;;26.50;20.38;;;;;;;-145.18;100.00;46648.69;5015206;28;20120;-72
2022/08/24 07:37:57;;;;;;;28.10;22.30;;;;;;;-145.18;100.00;46646.72;5032530;28;20116;-72
2022/08/24 07:40:24;;;;;;;28.25;22.25;;;;;;;-145.18;100.00;46648.69;5032932;28;20045;-73
2022/08/24 07:42:52;;;;;;;24.92;21.58;;;;;;;-145.18;100.00;46646.72;5014861;28;20029;-73
2022/08/24 07:45:18;;;;;;;30.17;22.07;;;;;;;-145.18;100.00;46644.78;5032538;28;20519;-72
2022/08/24 07:47:44;;;;;;;25.88;21.42;;;;;;;-145.18;100.00;46646.72;5033358;28;20028;-74
2022/08/24 07:50:13;;;;;;;27.83;21.05;;;;;;;-145.18;100.00;46652.59;5032520;28;20485;-74
2022/08/24 07:52:39;;;;;;;32.08;21.90;;;;;;;-145.18;100.00;46652.59;5015342;28;20033;-72
2022/08/24 07:55:05;;;;;;;26.70;22.33;;;;;;;-145.18;100.00;46652.59;5031946;28;20086;-74
2022/08/24 07:57:31;;;;;;;27.02;20.90;;;;;;;-145.18;100.00;46650.63;5032599;28;20022;-73
2022/08/24 08:00:01;;;;;;;23.35;20.75;;;;;;;-145.18;100.00;46652.59;5031864;28;20439;-74
2022/08/24 08:02:26;;;;;;;27.45;20.90;;;;;;;-145.18;100.00;46650.63;5032036;28;20398;-75
2022/08/24 08:04:55;;;;;;;26.95;19.58;;;;;;;-145.18;100.00;46658.44;5031803;28;20037;-74
2022/08/24 08:07:21;;;;;;;24.10;18.42;;;;;;;-145.18;100.00;46652.59;5031713;28;20120;-74
2022/08/24 08:09:48;;;;;;;22.35;18.42;;;;;;;-145.18;100.00;46656.50;5031728;28;20155;-74
2022/08/24 08:12:14;;;;;;;21.63;16.40;;;;;;;-145.18;100.00;46656.50;5031754;28;20037;-74
2022/08/24 08:14:39;;;;;;;16.50;14.23;;;;;;;-145.18;100.00;46658.44;5031341;28;20040;-72
2022/08/24 08:17:06;;;;;;;23.50;15.20;;;;;;;-145.18;100.00;46664.31;5032130;28;20048;-72
2022/08/24 08:19:32;;;;;;;21.85;16.10;;;;;;;-145.18;100.00;46662.34;5032015;28;20037;-72
2022/08/24 08:24:42;;;;;;;21.15;13.07;;;;;;;-145.18;100.00;46666.25;5032223;28;20136;-73
2022/08/24 08:27:09;;;;;;;12.63;10.82;;;;;;;-145.18;100.00;46670.16;5032320;28;20071;-72
2022/08/24 08:29:35;;;;;;;16.60;12.13;;;;;;;-145.18;100.00;46670.16;5031878;28;20025;-72
2022/08/24 08:32:01;;;;;;;11.88;9.13;;;;;;;-145.18;100.00;46670.16;5032019;28;20068;-71
2022/08/24 08:34:27;;;;;;;10.15;6.60;;;;;;;-145.18;100.00;46633.06;5031711;28;20510;-73
2022/08/24 08:36:53;;;;;;;12.40;9.88;;;;;;;-145.18;100.00;46633.06;5031917;28;20025;-73
2022/08/24 08:39:20;;;;;;;15.18;10.32;;;;;;;-145.18;100.00;46633.06;5031686;28;20608;-72
2022/08/24 08:41:57;;;;;;;13.55;11.73;;;;;;;-145.18;100.00;46549.06;5031826;28;20064;-73
2022/08/24 08:44:44;;;;;;;14.05;11.88;;;;;;;-145.18;100.00;46539.28;5031516;28;20029;-73
2022/08/24 08:47:34;;;;;;;15.07;11.63;;;;;;;-145.18;100.00;46539.28;5031711;28;20032;-73
2022/08/24 08:50:05;;;;;;;15.60;10.88;;;;;;;-145.18;100.00;46539.28;5031008;28;20026;-73
2022/08/24 08:53:03;;;;;;;11.95;10.00;;;;;;;-145.18;100.00;46539.28;5014014;28;20436;-73
2022/08/24 08:55:47;;;;;;;14.07;8.50;;;;;;;-145.18;100.00;46529.53;5014977;28;20124;-72
2022/08/24 08:58:21;;;;;;;10.15;7.30;;;;;;;-145.18;100.00;46535.38;5031116;28;20021;-72
2022/08/24 09:01:00;;;;;;;10.23;7.28;;;;;;;-145.18;100.00;46535.38;5030998;28;20044;-72
2022/08/24 09:04:00;;;;;;;7.32;5.30;;;;;;;-145.18;100.00;46529.53;5028846;28;20060;-73
2022/08/24 09:06:31;;;;;;;6.50;5.72;;;;;;;-145.18;100.00;46525.63;5016669;28;20111;-73
2022/08/24 09:09:42;;;;;;;7.95;4.82;;;;;;;-145.18;100.00;46515.84;5016267;28;20033;-73
2022/08/24 09:12:36;;;;;;;8.70;5.10;;;;;;;-145.18;100.00;46554.91;5030116;28;20025;-73
2022/08/24 09:15:39;;;;;;;5.80;4.30;;;;;;;-145.18;100.00;46527.56;5030689;28;20104;-73
2022/08/24 09:18:41;;;;;;;8.18;6.45;;;;;;;-145.18;100.00;46531.47;5030784;28;20038;-72
2022/08/24 09:21:35;;;;;;;6.90;5.40;;;;;;;-145.18;100.00;46523.66;5030477;28;20033;-73
2022/08/24 09:24:14;;;;;;;7.35;5.45;;;;;;;-145.18;100.00;46527.56;5026736;28;20065;-73
2022/08/24 09:26:58;;;;;;;8.30;5.72;;;;;;;-145.18;100.00;46539.28;5007652;28;20442;-73
2022/08/24 09:29:48;;;;;;;7.53;3.60;;;;;;;-145.18;100.00;46508.03;5029806;28;20038;-72
2022/08/24 09:32:22;;;;;;;6.10;3.38;;;;;;;-145.18;100.00;46933.88;5019303;28;20120;-72
2022/08/24 09:35:02;;;;;;;5.00;3.78;;;;;;;-145.18;100.00;46814.72;5020226;28;20075;-72
2022/08/24 09:37:33;;;;;;;5.47;3.08;;;;;;;-145.18;100.00;46763.91;5042024;28;20028;-72
2022/08/24 09:40:36;;;;;;;4.90;3.28;;;;;;;-145.18;100.00;46722.91;5040112;28;20048;-72
2022/08/24 09:43:16;;;;;;;5.50;3.60;;;;;;;-145.18;100.00;46656.50;5020715;28;20033;-73
2022/08/24 09:45:44;;;;;;;5.32;3.63;;;;;;;-145.18;100.00;46613.50;5039136;28;20124;-73
2022/08/24 09:48:47;;;;;;;4.78;3.67;;;;;;;-145.18;100.00;46554.91;5029732;28;20033;-73
2022/08/24 09:51:41;;;;;;;5.05;2.92;;;;;;;-145.18;100.00;46572.50;5028499;28;20067;-72
2022/08/24 09:54:43;;;;;;;5.78;2.47;;;;;;;-145.18;100.00;46789.31;4997687;28;20111;-73
2022/08/24 09:57:26;;;;;;;3.83;2.60;;;;;;;-145.18;100.00;46955.34;5024110;28;20385;-72
2022/08/24 10:00:13;;;;;;;6.65;2.50;;;;;;;-145.18;100.00;47074.53;5025518;28;20041;-72
2022/08/24 10:02:47;;;;;;;3.90;2.60;;;;;;;-145.18;100.00;47051.09;5027118;28;20053;-72
2022/08/24 10:05:26;;;;;;;9.10;3.35;;;;;;;-145.18;100.00;46978.81;5006652;28;20037;-72
2022/08/24 10:08:03;;;;;;;6.47;3.50;;;;;;;-145.18;100.00;47074.53;5022827;28;20531;-72
2022/08/24 10:10:50;;;;;;;5.15;4.00;;;;;;;-145.18;100.00;47053.03;5023098;28;20033;-73
2022/08/24 10:13:24;;;;;;;5.55;3.78;;;;;;;-145.18;100.00;47047.19;5016063;28;20033;-72
2022/08/24 10:16:08;;;;;;;8.63;4.38;;;;;;;-145.18;100.00;47004.19;5029618;28;20076;-72
2022/08/24 10:18:39;;;;;;;9.65;3.90;;;;;;;-145.18;100.00;47010.06;5018240;28;20040;-72
2022/08/24 10:21:18;;;;;;;4.85;3.97;;;;;;;-145.18;100.00;46965.13;5028299;28;20057;-72
2022/08/24 10:24:05;;;;;;;5.80;3.33;;;;;;;-145.18;100.00;47060.84;5029026;28;20068;-73
2022/08/24 10:26:33;;;;;;;5.82;3.03;;;;;;;-145.18;100.00;47023.72;5021167;28;20025;-73
2022/08/24 10:29:24;;;;;;;6.32;3.80;;;;;;;-145.18;100.00;47021.78;5028313;28;20025;-73
2022/08/24 10:32:13;;;;;;;6.40;3.20;;;;;;;-145.18;100.00;46976.84;5029998;28;20029;-73
2022/08/24 10:35:08;;;;;;;7.38;3.30;;;;;;;-145.18;100.00;46959.25;5029560;28;20090;-74
2022/08/24 10:41:12;;;;;;;5.25;3.33;;;;;;;-145.18;100.00;46912.38;5033694;28;20413;-73
2022/08/24 10:44:07;;;;;;;5.18;2.80;;;;;;;-145.18;100.00;46912.38;5033840;28;20037;-73
2022/08/24 10:46:38;;;;;;;6.05;2.58;;;;;;;-145.18;100.00;46906.53;5034050;28;20037;-73
2022/08/24 10:49:22;;;;;;;5.38;2.45;;;;;;;-145.18;100.00;46910.44;5033213;28;20041;-73
2022/08/24 10:52:24;;;;;;;6.70;2.80;;;;;;;-145.18;100.00;46887.00;5033963;28;20424;-73
2022/08/24 10:54:50;;;;;;;8.13;2.03;;;;;;;-145.18;100.00;46883.09;5033085;28;20083;-73
2022/08/24 10:57:29;;;;;;;3.58;2.10;;;;;;;-145.18;100.00;46892.84;5033271;28;20386;-73
2022/08/24 11:00:05;;;;;;;6.40;1.77;;;;;;;-145.18;100.00;46879.19;5033007;28;20030;-73
2022/08/24 11:02:36;;;;;;;2.05;1.70;;;;;;;-145.18;100.00;46885.03;5016301;28;20053;-72
2022/08/24 11:05:08;;;;;;;4.60;1.50;;;;;;;-145.18;100.00;46873.31;5032754;28;20498;-73
2022/08/24 11:07:35;;;;;;;1.75;1.50;;;;;;;-145.18;100.00;46879.19;5033364;28;20040;-73
2022/08/24 11:10:07;;;;;;;2.67;1.85;;;;;;;-145.18;100.00;46867.44;5032720;28;20034;-73
2022/08/24 11:12:36;;;;;;;2.47;1.65;;;;;;;-145.18;100.00;46877.22;5015470;28;20481;-73
2022/08/24 11:15:17;;;;;;;3.42;1.70;;;;;;;-145.18;100.00;46871.38;5014523;28;20036;-72
2022/08/24 11:18:00;;;;;;;2.13;1.30;;;;;;;-145.18;100.00;46875.28;5033260;28;20044;-72
2022/08/24 11:20:41;;;;;;;2.42;1.52;;;;;;;-145.18;100.00;46892.84;5032709;28;20127;-73
2022/08/24 11:23:34;;;;;;;5.07;1.30;;;;;;;-145.18;100.00;46890.91;5015420;28;20063;-72
2022/08/24 11:26:09;;;;;;;2.88;1.40;;;;;;;-145.18;100.00;46898.72;5032815;28;20022;-72
2022/08/24 11:28:46;;;;;;;2.67;1.48;;;;;;;-145.18;100.00;46902.63;5032679;28;20052;-72
2022/08/24 11:31:19;;;;;;;4.95;1.27;;;;;;;-145.18;100.00;46918.25;5032357;28;20037;-73
2022/08/24 11:33:57;;;;;;;0.95;0.85;;;;;;;-145.18;100.00;46924.09;5033058;28;20655;-72
2022/08/24 11:36:27;;;;;;;2.35;0.82;;;;;;;-145.18;100.00;46929.97;5032688;28;20398;-73
2022/08/24 11:39:10;;;;;;;4.07;1.27;;;;;;;-145.18;100.00;46933.88;5031995;28;20033;-73
2022/08/24 11:41:48;;;;;;;1.30;0.90;;;;;;;-145.18;100.00;46945.59;5032517;28;20034;-73
2022/08/24 11:44:27;;;;;;;4.10;1.00;;;;;;;-145.18;100.00;46945.59;5032241;28;20033;-72
2022/08/24 11:47:16;;;;;;;8.23;1.40;;;;;;;-145.18;100.00;46945.59;5032089;28;20425;-73
2022/08/24 11:49:58;;;;;;;3.58;1.00;;;;;;;-145.18;100.00;46931.91;5031460;28;20026;-73
2022/08/24 11:52:45;;;;;;;2.60;0.80;;;;;;;-145.18;100.00;46922.16;5032402;28;20394;-73
2022/08/24 11:55:16;;;;;;;0.90;0.80;;;;;;;-145.18;100.00;46929.97;5031830;28;20040;-72
2022/08/24 11:58:19;;;;;;;2.42;1.30;;;;;;;-145.18;100.00;46924.09;5032728;28;20114;-73
2022/08/24 12:00:53;;;;;;;4.90;1.88;;;;;;;-145.18;100.00;46922.16;5031739;28;20045;-73
2022/08/24 12:03:32;;;;;;;1.50;1.35;;;;;;;-145.18;100.00;46924.09;5032148;28;20513;-72
2022/08/24 12:06:07;;;;;;;3.33;1.23;;;;;;;-145.18;100.00;46920.19;5031609;28;20033;-72
2022/08/24 12:09:01;;;;;;;1.85;1.30;;;;;;;-145.18;100.00;46898.72;5032357;28;20113;-73
2022/08/24 12:11:36;;;;;;;3.50;1.60;;;;;;;-145.18;100.00;46896.75;5031956;28;20072;-73
2022/08/24 12:14:12;;;;;;;3.58;1.90;;;;;;;-145.18;100.00;46904.56;5031500;28;20056;-72
2022/08/24 12:17:01;;;;;;;2.47;1.38;;;;;;;-145.18;100.00;46906.53;5031361;28;20021;-72
2022/08/24 12:19:30;;;;;;;7.47;1.60;;;;;;;-145.18;100.00;46904.56;5031644;28;20485;-72
2022/08/24 12:22:05;;;;;;;6.05;1.50;;;;;;;-145.18;100.00;46883.09;5031629;28;20029;-72
2022/08/24 12:24:52;;;;;;;2.50;1.37;;;;;;;-145.18;100.00;46898.72;5031810;28;20033;-72
2022/08/24 12:27:25;;;;;;;2.47;1.33;;;;;;;-145.18;100.00;46898.72;5031979;28;20025;-73
2022/08/24 12:30:02;;;;;;;6.38;1.88;;;;;;;-145.18;100.00;46904.56;5031593;28;20040;-72
2022/08/24 12:32:45;;;;;;;4.90;1.58;;;;;;;-145.18;100.00;46904.56;5031639;28;20021;-72
2022/08/24 12:35:24;;;;;;;6.90;1.60;;;;;;;-145.18;100.00;46929.97;5031011;28;20124;-72
2022/08/24 12:38:06;;;;;;;5.22;1.60;;;;;;;-145.18;100.00;46929.97;5031436;28;20022;-72
2022/08/24 12:40:35;;;;;;;3.30;1.30;;;;;;;-145.18;100.00;46924.09;5031285;28;20402;-72
2022/08/24 12:43:04;;;;;;;4.85;1.40;;;;;;;-145.18;100.00;46922.16;5031379;28;20425;-73
2022/08/24 12:45:30;;;;;;;3.15;1.40;;;;;;;-145.18;100.00;46926.06;5031081;28;20057;-73
2022/08/24 12:48:04;;;;;;;3.33;1.38;;;;;;;-145.18;100.00;46933.88;5013448;28;20040;-73
2022/08/24 12:50:47;;;;;;;2.45;1.38;;;;;;;-145.18;100.00;46928.00;5030873;28;20037;-72
2022/08/24 12:53:43;;;;;;;2.72;1.58;;;;;;;-145.18;100.00;46947.53;5031436;28;20029;-73
2022/08/24 12:56:23;;;;;;;5.25;1.48;;;;;;;-145.18;100.00;46951.44;5030713;28;20094;-73
2022/08/24 12:59:10;;;;;;;2.95;1.50;;;;;;;-145.18;100.00;46947.53;5030768;28;20033;-73
2022/08/24 13:01:42;;;;;;;4.50;1.95;;;;;;;-145.18;100.00;46945.59;5030627;28;20450;-72
2022/08/24 13:04:11;;;;;;;5.22;1.55;;;;;;;-145.18;100.00;46941.69;5030622;28;20939;-72
2022/08/24 13:06:42;;;;;;;5.75;1.80;;;;;;;-145.18;100.00;46935.81;5030723;28;20048;-73
2022/08/24 13:09:26;;;;;;;3.55;1.50;;;;;;;-145.18;100.00;46926.06;5030689;28;20037;-73
2022/08/24 13:11:51;;;;;;;1.50;1.10;;;;;;;-145.18;100.00;46906.53;5030719;28;20036;-72
2022/08/24 13:14:20;;;;;;;1.83;1.20;;;;;;;-145.18;100.00;46900.66;5030503;28;20034;-72
2022/08/24 13:16:57;;;;;;;5.95;1.70;;;;;;;-145.18;100.00;46888.94;5030141;28;20037;-72
2022/08/24 13:19:27;;;;;;;3.75;1.40;;;;;;;-145.18;100.00;46892.84;5030569;28;20026;-72
2022/08/24 13:21:57;;;;;;;2.33;1.25;;;;;;;-145.18;100.00;46877.22;5030464;28;20036;-72
2022/08/24 13:24:31;;;;;;;1.73;1.23;;;;;;;-145.18;100.00;46883.09;5029496;28;20071;-72
2022/08/24 13:27:17;;;;;;;3.07;1.50;;;;;;;-145.18;100.00;46902.63;5026045;28;20033;-72
2022/08/24 13:29:52;;;;;;;3.28;1.30;;;;;;;-145.18;100.00;46912.38;5027548;28;20036;-72
2022/08/24 13:32:36;;;;;;;6.65;1.20;;;;;;;-145.18;100.00;46918.25;5030614;28;20384;-72